Архив погоды в Баеве

Метеограмма Баево
Среда, 15 Августа
Время местн. Темп Ветер Видим Явления Облачность нижн/средн/верх Атм. давл. Влжн Точка росы ВНГО R Сост. почвы Tg s
Напр Скр Прв ур.ст ур.м изм
03:00 +11° В 1 - 20 км - ясно 754 765 -0.1 93% +9.9° более 2.5 км - - - -
00:00 +12.4° В,С-В 2 - 20 км - ясно 754 765 -0.2 91% +10.9° более 2.5 км - - - -
Вторник, 14 Августа
Время местн. Темп Ветер Видим Явления Облачность нижн/средн/верх Атм. давл. Влжн Точка росы ВНГО R Сост. почвы Tg s
Напр Скр Прв ур.ст ур.м изм
21:00 +14.4° В 1 - 20 км - переменная облачность 754 765 -0.1 82% +11.3° 1.5 км - - - -
18:00 +22.7° С-З 1 - 20 км - переменная облачность 755 765 -0.2 41% +8.8° 1.5 км 0 - - -
15:00 +21.4° Ю 1 - 20 км - облачно с прояснениями 755 765 -0.2 49% +10.1° 1.5 км - - - -
12:00 +19.2° В,Ю-В 2 - 20 км - облачно с прояснениями 755 766 -0.3 62% +11.8° 1.5 км - - - -
09:00 +17.4° С-В 1 - 20 км - облачно с прояснениями 755 766 +0.8 74% +12.7° 1.5 км - - - -
06:00 +10.9° штиль 0 - 10 км - переменная облачность 755 766 +1 93% +9.8° 1.5 км 1 Влажная (без луж) - -
03:00 +11.9° С 1 - 10 км - облачно с прояснениями 754 765 +0.6 94% +10.9° 1 км - - - -
00:00 +11.6° З,С-З 1 - 10 км облака рассеиваются {ливневые осадки} переменная облачность 753 764 +0.8 93% +10.5° 1 км - - - -
Понедельник, 13 Августа
Время местн. Темп Ветер Видим Явления Облачность нижн/средн/верх Атм. давл. Влжн Точка росы ВНГО R Сост. почвы Tg s
Напр Скр Прв ур.ст ур.м изм
21:00 +14.2° С 3 - 10 км ливневый дождь облачно 752 763 +1.7 91% +12.8° 1 км - - - -
18:00 +16.1° С 3 - 10 км слабый ливневый дождь облачно 750 761 +1.1 85% +13.6° 1 км 0.6 - - -
15:00 +17.9° З 2 - 10 км - облачно 749 760 +0.9 60% +10.1° 1 км - - - -
12:00 +16.5° С,С-З 1 - 10 км - облачно 748 759 +1.1 61% +9° 1 км - - - -
09:00 +13.4° Ю 1 - 10 км - облачно 747 758 +1.6 77% +9.4° 1 км - - - -
06:00 +11.3° Ю,Ю-З 1 - 10 км - облачно 746 757 +1.3 84% +8.7° 1 км 0 Влажная (без луж) - -
03:00 +11.4° Ю 2 - 10 км - облачно 745 756 +0.5 81% +8.2° 1.5 км - - - -
00:00 +11.7° Ю-В 1 - 10 км - облачно 744 755 +1 83% +9° 1.5 км - - - -
Воскресенье, 12 Августа
Время местн. Темп Ветер Видим Явления Облачность нижн/средн/верх Атм. давл. Влжн Точка росы ВНГО R Сост. почвы Tg s
Напр Скр Прв ур.ст ур.м изм
21:00 +12.4° Ю,Ю-З 2 - 10 км - облачно с прояснениями 743 754 +1.2 81% +9.2° 1.5 км - - - -
18:00 +14.8° З,Ю-З 5 - 10 км ливневый дождь облачно 742 753 +1.5 69% +9.1° 1 км 0.3 - - -
15:00 +15.2° З,Ю-З 8 13 20 км - облачно с прояснениями 740 751 +1.8 73% +10.4° 1 км - - - -
12:00 +17.4° Ю-З 4 - 20 км небо без изменений {ливневые осадки} облачно 739 749 +0.9 72% +12.2° 1 км - - - -
09:00 +16.4° Ю,Ю-З 3 - 20 км - облачно 738 748 -0.1 72% +11.3° 1 км - - - -
06:00 +11.3° штиль 0 - 10 км - облачно 738 749 -0.2 93% +10.2° 1.5 км 0 Влажная (без луж) - -
03:00 +12° Ю-З 1 - 20 км - переменная облачность 738 749 -0.5 91% +10.5° 1.5 км - - - -
00:00 +14.5° З,Ю-З 1 - 20 км - переменная облачность 738 749 -0.5 87% +12.3° 1.5 км - - - -